sensor_id;sensor_type;location;lat;lon;timestamp;temperature;humidity
9980;DHT22;5030;51.532;6.766;2023-04-15T00:00:09;6.80;99.90
9980;DHT22;5030;51.532;6.766;2023-04-15T00:02:36;6.80;99.90
9980;DHT22;5030;51.532;6.766;2023-04-15T00:05:02;6.80;99.90
9980;DHT22;5030;51.532;6.766;2023-04-15T00:07:28;6.80;99.90
9980;DHT22;5030;51.532;6.766;2023-04-15T00:09:54;6.80;99.90
9980;DHT22;5030;51.532;6.766;2023-04-15T00:12:25;6.80;99.90
9980;DHT22;5030;51.532;6.766;2023-04-15T00:14:51;6.80;99.90
9980;DHT22;5030;51.532;6.766;2023-04-15T00:17:16;6.70;99.90
9980;DHT22;5030;51.532;6.766;2023-04-15T00:19:42;6.60;99.90
9980;DHT22;5030;51.532;6.766;2023-04-15T00:22:11;6.60;99.90
9980;DHT22;5030;51.532;6.766;2023-04-15T00:24:37;6.50;99.90
9980;DHT22;5030;51.532;6.766;2023-04-15T00:27:03;6.60;99.90
9980;DHT22;5030;51.532;6.766;2023-04-15T00:29:30;6.50;99.90
9980;DHT22;5030;51.532;6.766;2023-04-15T00:31:56;6.40;99.90
9980;DHT22;5030;51.532;6.766;2023-04-15T00:34:26;6.30;99.90
9980;DHT22;5030;51.532;6.766;2023-04-15T00:36:53;6.30;99.90
9980;DHT22;5030;51.532;6.766;2023-04-15T00:39:19;6.30;99.90
9980;DHT22;5030;51.532;6.766;2023-04-15T00:41:45;6.30;99.90
9980;DHT22;5030;51.532;6.766;2023-04-15T00:44:11;6.20;99.90
9980;DHT22;5030;51.532;6.766;2023-04-15T00:46:37;6.10;99.90
9980;DHT22;5030;51.532;6.766;2023-04-15T00:49:06;6.10;99.90
9980;DHT22;5030;51.532;6.766;2023-04-15T00:51:35;6.10;99.90
9980;DHT22;5030;51.532;6.766;2023-04-15T00:54:05;6.20;99.90
9980;DHT22;5030;51.532;6.766;2023-04-15T00:56:35;6.20;99.90
9980;DHT22;5030;51.532;6.766;2023-04-15T00:59:02;6.40;99.90
9980;DHT22;5030;51.532;6.766;2023-04-15T01:01:28;6.50;99.90
9980;DHT22;5030;51.532;6.766;2023-04-15T01:03:57;6.50;99.90
9980;DHT22;5030;51.532;6.766;2023-04-15T01:06:23;6.50;99.90
9980;DHT22;5030;51.532;6.766;2023-04-15T01:08:49;6.70;99.90
9980;DHT22;5030;51.532;6.766;2023-04-15T01:11:16;6.70;99.90
9980;DHT22;5030;51.532;6.766;2023-04-15T01:13:42;6.50;99.90
9980;DHT22;5030;51.532;6.766;2023-04-15T01:16:08;6.50;99.90
9980;DHT22;5030;51.532;6.766;2023-04-15T01:18:35;6.50;99.90
9980;DHT22;5030;51.532;6.766;2023-04-15T01:21:02;6.50;99.90
9980;DHT22;5030;51.532;6.766;2023-04-15T01:23:29;6.60;99.90
9980;DHT22;5030;51.532;6.766;2023-04-15T01:25:55;6.40;99.90
9980;DHT22;5030;51.532;6.766;2023-04-15T01:28:21;6.20;99.90
9980;DHT22;5030;51.532;6.766;2023-04-15T01:30:47;6.10;99.90
9980;DHT22;5030;51.532;6.766;2023-04-15T01:33:13;6.00;99.90
9980;DHT22;5030;51.532;6.766;2023-04-15T01:35:39;6.00;99.90
9980;DHT22;5030;51.532;6.766;2023-04-15T01:38:06;5.90;99.90
9980;DHT22;5030;51.532;6.766;2023-04-15T01:40:33;5.80;99.90
9980;DHT22;5030;51.532;6.766;2023-04-15T01:42:59;5.80;99.90
9980;DHT22;5030;51.532;6.766;2023-04-15T01:45:25;5.70;99.90
9980;DHT22;5030;51.532;6.766;2023-04-15T01:47:51;5.60;99.90
9980;DHT22;5030;51.532;6.766;2023-04-15T01:50:17;5.60;99.90
9980;DHT22;5030;51.532;6.766;2023-04-15T01:52:43;5.60;99.90
9980;DHT22;5030;51.532;6.766;2023-04-15T01:55:10;5.60;99.90
9980;DHT22;5030;51.532;6.766;2023-04-15T02:00:11;5.40;99.90
9980;DHT22;5030;51.532;6.766;2023-04-15T02:02:37;5.50;99.90
9980;DHT22;5030;51.532;6.766;2023-04-15T02:05:03;5.50;99.90
9980;DHT22;5030;51.532;6.766;2023-04-15T02:07:29;5.50;99.90
9980;DHT22;5030;51.532;6.766;2023-04-15T02:09:56;5.60;99.90
9980;DHT22;5030;51.532;6.766;2023-04-15T02:12:22;5.50;99.90
9980;DHT22;5030;51.532;6.766;2023-04-15T02:14:48;5.50;99.90
9980;DHT22;5030;51.532;6.766;2023-04-15T02:17:13;5.60;99.90
9980;DHT22;5030;51.532;6.766;2023-04-15T02:19:39;5.50;99.90
9980;DHT22;5030;51.532;6.766;2023-04-15T02:22:05;5.50;99.90
9980;DHT22;5030;51.532;6.766;2023-04-15T02:24:33;5.40;99.90
9980;DHT22;5030;51.532;6.766;2023-04-15T02:26:59;5.30;99.90
9980;DHT22;5030;51.532;6.766;2023-04-15T02:29:26;5.10;99.90
9980;DHT22;5030;51.532;6.766;2023-04-15T02:31:51;5.10;99.90
9980;DHT22;5030;51.532;6.766;2023-04-15T02:34:18;5.00;99.90
9980;DHT22;5030;51.532;6.766;2023-04-15T02:36:44;5.10;99.90
9980;DHT22;5030;51.532;6.766;2023-04-15T02:39:11;5.00;99.90
9980;DHT22;5030;51.532;6.766;2023-04-15T02:41:39;5.10;99.90
9980;DHT22;5030;51.532;6.766;2023-04-15T02:44:04;5.00;99.90
9980;DHT22;5030;51.532;6.766;2023-04-15T02:46:31;5.10;99.90
9980;DHT22;5030;51.532;6.766;2023-04-15T02:48:57;5.20;99.90
9980;DHT22;5030;51.532;6.766;2023-04-15T02:51:24;5.30;99.90
9980;DHT22;5030;51.532;6.766;2023-04-15T02:53:50;5.40;99.90
9980;DHT22;5030;51.532;6.766;2023-04-15T02:56:16;5.30;99.90
9980;DHT22;5030;51.532;6.766;2023-04-15T02:58:43;5.20;99.90
9980;DHT22;5030;51.532;6.766;2023-04-15T03:01:09;5.20;99.90
9980;DHT22;5030;51.532;6.766;2023-04-15T03:03:35;5.10;99.90
9980;DHT22;5030;51.532;6.766;2023-04-15T03:06:00;5.10;99.90
9980;DHT22;5030;51.532;6.766;2023-04-15T03:08:26;4.90;99.90
9980;DHT22;5030;51.532;6.766;2023-04-15T03:10:52;4.90;99.90
9980;DHT22;5030;51.532;6.766;2023-04-15T03:13:18;4.70;99.90
9980;DHT22;5030;51.532;6.766;2023-04-15T03:15:47;4.90;99.90
9980;DHT22;5030;51.532;6.766;2023-04-15T03:18:13;4.80;99.90
9980;DHT22;5030;51.532;6.766;2023-04-15T03:20:39;4.80;99.90
9980;DHT22;5030;51.532;6.766;2023-04-15T03:23:04;4.60;99.90
9980;DHT22;5030;51.532;6.766;2023-04-15T03:25:30;4.50;99.90
9980;DHT22;5030;51.532;6.766;2023-04-15T03:27:56;4.50;99.90
9980;DHT22;5030;51.532;6.766;2023-04-15T03:30:23;4.50;99.90
9980;DHT22;5030;51.532;6.766;2023-04-15T03:32:49;4.40;99.90
9980;DHT22;5030;51.532;6.766;2023-04-15T03:35:16;4.40;99.90
9980;DHT22;5030;51.532;6.766;2023-04-15T03:37:41;4.10;99.90
9980;DHT22;5030;51.532;6.766;2023-04-15T03:40:07;4.40;99.90
9980;DHT22;5030;51.532;6.766;2023-04-15T03:42:34;4.50;99.90
9980;DHT22;5030;51.532;6.766;2023-04-15T03:44:59;4.40;99.90
9980;DHT22;5030;51.532;6.766;2023-04-15T03:47:25;4.70;99.90
9980;DHT22;5030;51.532;6.766;2023-04-15T03:49:51;4.60;99.90
9980;DHT22;5030;51.532;6.766;2023-04-15T03:52:17;4.70;99.90
9980;DHT22;5030;51.532;6.766;2023-04-15T03:54:42;4.50;99.90
9980;DHT22;5030;51.532;6.766;2023-04-15T03:57:08;4.60;99.90
9980;DHT22;5030;51.532;6.766;2023-04-15T03:59:34;4.30;99.90
9980;DHT22;5030;51.532;6.766;2023-04-15T04:01:59;4.30;99.90
9980;DHT22;5030;51.532;6.766;2023-04-15T04:04:25;4.50;99.90
9980;DHT22;5030;51.532;6.766;2023-04-15T04:06:51;4.60;99.90
9980;DHT22;5030;51.532;6.766;2023-04-15T04:09:16;4.40;99.90
9980;DHT22;5030;51.532;6.766;2023-04-15T04:11:42;4.60;99.90
9980;DHT22;5030;51.532;6.766;2023-04-15T04:14:07;4.60;99.90
9980;DHT22;5030;51.532;6.766;2023-04-15T04:16:33;4.70;99.90
9980;DHT22;5030;51.532;6.766;2023-04-15T04:18:59;4.70;99.90
9980;DHT22;5030;51.532;6.766;2023-04-15T04:21:25;4.50;99.90
9980;DHT22;5030;51.532;6.766;2023-04-15T04:23:51;4.60;99.90
9980;DHT22;5030;51.532;6.766;2023-04-15T04:26:16;4.60;99.90
9980;DHT22;5030;51.532;6.766;2023-04-15T04:28:42;4.40;99.90
9980;DHT22;5030;51.532;6.766;2023-04-15T04:31:08;4.60;99.90
9980;DHT22;5030;51.532;6.766;2023-04-15T04:33:33;4.30;99.90
9980;DHT22;5030;51.532;6.766;2023-04-15T04:35:59;4.40;99.90
9980;DHT22;5030;51.532;6.766;2023-04-15T04:38:24;4.20;99.90
9980;DHT22;5030;51.532;6.766;2023-04-15T04:40:50;4.20;99.90
9980;DHT22;5030;51.532;6.766;2023-04-15T04:43:16;4.30;99.90
9980;DHT22;5030;51.532;6.766;2023-04-15T04:45:42;4.30;99.90
9980;DHT22;5030;51.532;6.766;2023-04-15T04:48:07;4.20;99.90
9980;DHT22;5030;51.532;6.766;2023-04-15T04:50:35;4.20;99.90
9980;DHT22;5030;51.532;6.766;2023-04-15T04:53:01;3.90;99.90
9980;DHT22;5030;51.532;6.766;2023-04-15T04:55:27;4.10;99.90
9980;DHT22;5030;51.532;6.766;2023-04-15T04:57:53;3.80;99.90
9980;DHT22;5030;51.532;6.766;2023-04-15T05:00:19;4.00;99.90
9980;DHT22;5030;51.532;6.766;2023-04-15T05:02:45;4.00;99.90
9980;DHT22;5030;51.532;6.766;2023-04-15T05:05:10;4.00;99.90
9980;DHT22;5030;51.532;6.766;2023-04-15T05:07:36;4.20;99.90
9980;DHT22;5030;51.532;6.766;2023-04-15T05:10:03;4.00;99.90
9980;DHT22;5030;51.532;6.766;2023-04-15T05:12:29;4.30;99.90
9980;DHT22;5030;51.532;6.766;2023-04-15T05:14:54;4.40;99.90
9980;DHT22;5030;51.532;6.766;2023-04-15T05:17:20;4.40;99.90
9980;DHT22;5030;51.532;6.766;2023-04-15T05:19:46;4.20;99.90
9980;DHT22;5030;51.532;6.766;2023-04-15T05:22:11;4.50;99.90
9980;DHT22;5030;51.532;6.766;2023-04-15T05:24:37;4.20;99.90
9980;DHT22;5030;51.532;6.766;2023-04-15T05:27:03;4.40;99.90
9980;DHT22;5030;51.532;6.766;2023-04-15T05:29:29;4.30;99.90
9980;DHT22;5030;51.532;6.766;2023-04-15T05:31:55;4.60;99.90
9980;DHT22;5030;51.532;6.766;2023-04-15T05:34:21;4.40;99.90
9980;DHT22;5030;51.532;6.766;2023-04-15T05:36:47;4.60;99.90
9980;DHT22;5030;51.532;6.766;2023-04-15T05:39:13;4.50;99.90
9980;DHT22;5030;51.532;6.766;2023-04-15T05:41:38;4.80;99.90
9980;DHT22;5030;51.532;6.766;2023-04-15T05:44:04;4.80;99.90
9980;DHT22;5030;51.532;6.766;2023-04-15T05:46:30;5.00;99.90
9980;DHT22;5030;51.532;6.766;2023-04-15T05:48:56;4.90;99.90
9980;DHT22;5030;51.532;6.766;2023-04-15T05:51:23;5.10;99.90
9980;DHT22;5030;51.532;6.766;2023-04-15T05:53:48;5.00;99.90
9980;DHT22;5030;51.532;6.766;2023-04-15T05:56:14;5.30;99.90
9980;DHT22;5030;51.532;6.766;2023-04-15T05:58:40;5.20;99.90
9980;DHT22;5030;51.532;6.766;2023-04-15T06:01:06;5.40;99.90
9980;DHT22;5030;51.532;6.766;2023-04-15T06:03:31;5.40;99.90
9980;DHT22;5030;51.532;6.766;2023-04-15T06:05:57;5.80;99.90
9980;DHT22;5030;51.532;6.766;2023-04-15T06:08:23;5.80;99.90
9980;DHT22;5030;51.532;6.766;2023-04-15T06:10:49;5.80;99.90
9980;DHT22;5030;51.532;6.766;2023-04-15T06:13:14;6.00;99.90
9980;DHT22;5030;51.532;6.766;2023-04-15T06:15:41;6.20;99.90
9980;DHT22;5030;51.532;6.766;2023-04-15T06:18:07;6.40;99.90
9980;DHT22;5030;51.532;6.766;2023-04-15T06:20:33;6.50;99.90
9980;DHT22;5030;51.532;6.766;2023-04-15T06:22:58;6.70;99.90
9980;DHT22;5030;51.532;6.766;2023-04-15T06:25:24;7.00;99.90
9980;DHT22;5030;51.532;6.766;2023-04-15T06:27:49;7.10;99.90
9980;DHT22;5030;51.532;6.766;2023-04-15T06:30:15;7.30;99.90
9980;DHT22;5030;51.532;6.766;2023-04-15T06:32:41;7.40;99.90
9980;DHT22;5030;51.532;6.766;2023-04-15T06:35:07;7.60;99.90
9980;DHT22;5030;51.532;6.766;2023-04-15T06:37:33;7.90;99.90
9980;DHT22;5030;51.532;6.766;2023-04-15T06:39:58;8.00;99.90
9980;DHT22;5030;51.532;6.766;2023-04-15T06:42:24;8.10;99.90
9980;DHT22;5030;51.532;6.766;2023-04-15T06:44:50;8.30;99.90
9980;DHT22;5030;51.532;6.766;2023-04-15T06:47:16;8.30;99.90
9980;DHT22;5030;51.532;6.766;2023-04-15T06:49:41;8.50;99.90
9980;DHT22;5030;51.532;6.766;2023-04-15T06:52:09;8.70;99.90
9980;DHT22;5030;51.532;6.766;2023-04-15T06:54:35;8.80;99.90
9980;DHT22;5030;51.532;6.766;2023-04-15T06:57:01;9.00;99.90
9980;DHT22;5030;51.532;6.766;2023-04-15T06:59:27;9.10;99.90
9980;DHT22;5030;51.532;6.766;2023-04-15T07:01:53;9.20;99.90
9980;DHT22;5030;51.532;6.766;2023-04-15T07:04:18;9.50;99.90
9980;DHT22;5030;51.532;6.766;2023-04-15T07:06:45;9.50;99.90
9980;DHT22;5030;51.532;6.766;2023-04-15T07:09:10;9.60;99.90
9980;DHT22;5030;51.532;6.766;2023-04-15T07:11:36;9.70;99.90
9980;DHT22;5030;51.532;6.766;2023-04-15T07:14:02;9.60;99.90
9980;DHT22;5030;51.532;6.766;2023-04-15T07:16:28;9.60;99.90
9980;DHT22;5030;51.532;6.766;2023-04-15T07:18:54;9.70;99.90
9980;DHT22;5030;51.532;6.766;2023-04-15T07:21:20;9.60;99.90
9980;DHT22;5030;51.532;6.766;2023-04-15T07:23:46;10.00;99.90
9980;DHT22;5030;51.532;6.766;2023-04-15T07:26:11;10.10;99.90
9980;DHT22;5030;51.532;6.766;2023-04-15T07:28:38;10.10;99.90
9980;DHT22;5030;51.532;6.766;2023-04-15T07:31:04;10.10;99.90
9980;DHT22;5030;51.532;6.766;2023-04-15T07:33:29;10.20;99.90
9980;DHT22;5030;51.532;6.766;2023-04-15T07:35:55;10.20;99.90
9980;DHT22;5030;51.532;6.766;2023-04-15T07:38:21;10.00;99.90
9980;DHT22;5030;51.532;6.766;2023-04-15T07:40:47;10.00;99.90
9980;DHT22;5030;51.532;6.766;2023-04-15T07:43:14;10.10;99.90
9980;DHT22;5030;51.532;6.766;2023-04-15T07:45:40;10.00;99.90
9980;DHT22;5030;51.532;6.766;2023-04-15T07:48:05;9.90;99.90
9980;DHT22;5030;51.532;6.766;2023-04-15T07:50:32;9.90;99.90
9980;DHT22;5030;51.532;6.766;2023-04-15T07:52:58;10.00;99.90
9980;DHT22;5030;51.532;6.766;2023-04-15T07:55:23;10.10;99.90
9980;DHT22;5030;51.532;6.766;2023-04-15T07:57:49;10.00;99.90
9980;DHT22;5030;51.532;6.766;2023-04-15T08:00:15;10.20;99.90
9980;DHT22;5030;51.532;6.766;2023-04-15T08:02:42;10.40;99.90
9980;DHT22;5030;51.532;6.766;2023-04-15T08:05:11;10.50;99.90
9980;DHT22;5030;51.532;6.766;2023-04-15T08:07:37;10.60;99.90
9980;DHT22;5030;51.532;6.766;2023-04-15T08:10:05;10.70;99.90
9980;DHT22;5030;51.532;6.766;2023-04-15T08:12:30;10.90;99.90
9980;DHT22;5030;51.532;6.766;2023-04-15T08:14:56;11.10;99.90
9980;DHT22;5030;51.532;6.766;2023-04-15T08:17:22;11.00;99.90
9980;DHT22;5030;51.532;6.766;2023-04-15T08:19:48;10.90;99.90
9980;DHT22;5030;51.532;6.766;2023-04-15T08:22:14;11.20;99.90
9980;DHT22;5030;51.532;6.766;2023-04-15T08:24:40;11.30;99.80
9980;DHT22;5030;51.532;6.766;2023-04-15T08:27:06;11.50;97.80
9980;DHT22;5030;51.532;6.766;2023-04-15T08:29:32;11.60;96.40
9980;DHT22;5030;51.532;6.766;2023-04-15T08:31:59;11.40;88.30
9980;DHT22;5030;51.532;6.766;2023-04-15T08:34:26;11.40;92.40
9980;DHT22;5030;51.532;6.766;2023-04-15T08:36:52;11.40;93.40
9980;DHT22;5030;51.532;6.766;2023-04-15T08:39:18;11.40;96.20
9980;DHT22;5030;51.532;6.766;2023-04-15T08:41:51;11.50;90.20
9980;DHT22;5030;51.532;6.766;2023-04-15T08:44:22;11.30;92.50
9980;DHT22;5030;51.532;6.766;2023-04-15T08:46:48;11.30;95.00
9980;DHT22;5030;51.532;6.766;2023-04-15T08:49:14;11.30;95.90
9980;DHT22;5030;51.532;6.766;2023-04-15T08:51:42;11.50;96.00
9980;DHT22;5030;51.532;6.766;2023-04-15T08:54:09;11.60;98.30
9980;DHT22;5030;51.532;6.766;2023-04-15T08:56:35;11.90;96.70
9980;DHT22;5030;51.532;6.766;2023-04-15T08:59:01;11.90;95.10
9980;DHT22;5030;51.532;6.766;2023-04-15T09:01:28;12.10;90.00
9980;DHT22;5030;51.532;6.766;2023-04-15T09:03:54;12.00;81.40
9980;DHT22;5030;51.532;6.766;2023-04-15T09:06:21;11.90;89.00
9980;DHT22;5030;51.532;6.766;2023-04-15T09:08:48;12.00;90.60
9980;DHT22;5030;51.532;6.766;2023-04-15T09:11:14;12.20;93.20
9980;DHT22;5030;51.532;6.766;2023-04-15T09:13:39;12.20;90.20
9980;DHT22;5030;51.532;6.766;2023-04-15T09:16:07;12.00;90.80
9980;DHT22;5030;51.532;6.766;2023-04-15T09:18:34;12.20;98.30
9980;DHT22;5030;51.532;6.766;2023-04-15T09:21:11;12.40;92.60
9980;DHT22;5030;51.532;6.766;2023-04-15T09:23:39;12.70;97.20
9980;DHT22;5030;51.532;6.766;2023-04-15T09:26:07;12.80;91.30
9980;DHT22;5030;51.532;6.766;2023-04-15T09:28:33;12.60;93.00
9980;DHT22;5030;51.532;6.766;2023-04-15T09:31:06;12.50;90.30
9980;DHT22;5030;51.532;6.766;2023-04-15T09:33:32;12.40;90.20
9980;DHT22;5030;51.532;6.766;2023-04-15T09:35:59;12.30;94.60
9980;DHT22;5030;51.532;6.766;2023-04-15T09:38:25;12.10;93.00
9980;DHT22;5030;51.532;6.766;2023-04-15T09:40:51;12.20;97.60
9980;DHT22;5030;51.532;6.766;2023-04-15T09:43:16;12.10;98.00
9980;DHT22;5030;51.532;6.766;2023-04-15T09:45:48;12.30;94.40
9980;DHT22;5030;51.532;6.766;2023-04-15T09:48:21;12.50;96.10
9980;DHT22;5030;51.532;6.766;2023-04-15T09:50:48;12.30;96.50
9980;DHT22;5030;51.532;6.766;2023-04-15T09:53:16;12.10;99.90
9980;DHT22;5030;51.532;6.766;2023-04-15T09:55:52;12.20;97.60
9980;DHT22;5030;51.532;6.766;2023-04-15T09:58:20;12.40;99.90
9980;DHT22;5030;51.532;6.766;2023-04-15T10:00:47;12.50;99.90
9980;DHT22;5030;51.532;6.766;2023-04-15T10:03:18;12.50;98.10
9980;DHT22;5030;51.532;6.766;2023-04-15T10:05:47;12.90;96.80
9980;DHT22;5030;51.532;6.766;2023-04-15T10:08:14;12.80;87.90
9980;DHT22;5030;51.532;6.766;2023-04-15T10:10:40;12.70;93.50
9980;DHT22;5030;51.532;6.766;2023-04-15T10:13:06;12.80;98.00
9980;DHT22;5030;51.532;6.766;2023-04-15T10:15:33;13.30;91.40
9980;DHT22;5030;51.532;6.766;2023-04-15T10:17:59;13.10;92.60
9980;DHT22;5030;51.532;6.766;2023-04-15T10:20:26;12.90;93.40
9980;DHT22;5030;51.532;6.766;2023-04-15T10:22:54;13.30;94.40
9980;DHT22;5030;51.532;6.766;2023-04-15T10:25:20;13.40;85.30
9980;DHT22;5030;51.532;6.766;2023-04-15T10:27:47;13.10;91.70
9980;DHT22;5030;51.532;6.766;2023-04-15T10:30:13;13.30;90.10
9980;DHT22;5030;51.532;6.766;2023-04-15T10:32:39;12.90;92.20
9980;DHT22;5030;51.532;6.766;2023-04-15T10:35:06;12.80;97.10
9980;DHT22;5030;51.532;6.766;2023-04-15T10:37:35;12.70;96.80
9980;DHT22;5030;51.532;6.766;2023-04-15T10:40:31;12.20;97.90
9980;DHT22;5030;51.532;6.766;2023-04-15T10:42:58;12.50;99.90
9980;DHT22;5030;51.532;6.766;2023-04-15T10:45:26;12.40;98.00
9980;DHT22;5030;51.532;6.766;2023-04-15T10:47:55;12.40;97.80
9980;DHT22;5030;51.532;6.766;2023-04-15T10:50:21;12.50;96.90
9980;DHT22;5030;51.532;6.766;2023-04-15T10:52:51;12.40;99.90
9980;DHT22;5030;51.532;6.766;2023-04-15T10:55:25;12.70;97.30
9980;DHT22;5030;51.532;6.766;2023-04-15T10:57:52;12.70;95.70
9980;DHT22;5030;51.532;6.766;2023-04-15T11:00:19;12.50;94.50
9980;DHT22;5030;51.532;6.766;2023-04-15T11:05:18;12.20;99.90
9980;DHT22;5030;51.532;6.766;2023-04-15T11:07:55;11.90;99.90
9980;DHT22;5030;51.532;6.766;2023-04-15T11:12:57;11.80;99.90
9980;DHT22;5030;51.532;6.766;2023-04-15T11:18:15;12.10;99.90
9980;DHT22;5030;51.532;6.766;2023-04-15T11:20:48;12.40;99.90
9980;DHT22;5030;51.532;6.766;2023-04-15T11:23:26;12.70;99.90
9980;DHT22;5030;51.532;6.766;2023-04-15T11:25:54;12.90;94.10
9980;DHT22;5030;51.532;6.766;2023-04-15T11:28:20;13.30;81.90
9980;DHT22;5030;51.532;6.766;2023-04-15T11:30:45;13.30;85.90
9980;DHT22;5030;51.532;6.766;2023-04-15T11:33:11;13.40;65.60
9980;DHT22;5030;51.532;6.766;2023-04-15T11:35:40;13.60;73.70
9980;DHT22;5030;51.532;6.766;2023-04-15T11:38:11;13.60;77.20
9980;DHT22;5030;51.532;6.766;2023-04-15T11:40:39;13.80;71.70
9980;DHT22;5030;51.532;6.766;2023-04-15T11:43:18;13.70;55.60
9980;DHT22;5030;51.532;6.766;2023-04-15T11:45:58;13.00;69.50
9980;DHT22;5030;51.532;6.766;2023-04-15T11:48:35;13.20;75.10
9980;DHT22;5030;51.532;6.766;2023-04-15T11:51:03;13.40;68.90
9980;DHT22;5030;51.532;6.766;2023-04-15T11:53:48;13.30;83.90
9980;DHT22;5030;51.532;6.766;2023-04-15T11:58:47;12.80;90.80
9980;DHT22;5030;51.532;6.766;2023-04-15T12:01:15;12.40;94.10
9980;DHT22;5030;51.532;6.766;2023-04-15T12:03:47;12.50;92.40
9980;DHT22;5030;51.532;6.766;2023-04-15T12:06:24;12.50;91.60
9980;DHT22;5030;51.532;6.766;2023-04-15T12:08:57;12.60;92.10
9980;DHT22;5030;51.532;6.766;2023-04-15T12:16:30;12.90;91.30
9980;DHT22;5030;51.532;6.766;2023-04-15T12:18:58;12.60;93.50
9980;DHT22;5030;51.532;6.766;2023-04-15T12:21:33;12.50;92.30
9980;DHT22;5030;51.532;6.766;2023-04-15T12:24:05;12.20;97.90
9980;DHT22;5030;51.532;6.766;2023-04-15T12:26:52;12.40;99.60
9980;DHT22;5030;51.532;6.766;2023-04-15T12:29:20;12.60;95.00
9980;DHT22;5030;51.532;6.766;2023-04-15T12:31:54;13.00;89.30
9980;DHT22;5030;51.532;6.766;2023-04-15T12:34:31;12.80;90.50
9980;DHT22;5030;51.532;6.766;2023-04-15T12:37:01;12.70;95.40
9980;DHT22;5030;51.532;6.766;2023-04-15T12:39:29;12.70;94.50
9980;DHT22;5030;51.532;6.766;2023-04-15T12:41:55;13.00;88.40
9980;DHT22;5030;51.532;6.766;2023-04-15T12:44:22;13.00;90.70
9980;DHT22;5030;51.532;6.766;2023-04-15T12:46:49;13.00;91.00
9980;DHT22;5030;51.532;6.766;2023-04-15T12:49:14;12.90;88.70
9980;DHT22;5030;51.532;6.766;2023-04-15T12:51:41;12.70;91.00
9980;DHT22;5030;51.532;6.766;2023-04-15T12:54:07;12.40;97.50
9980;DHT22;5030;51.532;6.766;2023-04-15T12:56:32;12.10;99.90
9980;DHT22;5030;51.532;6.766;2023-04-15T12:58:58;11.90;99.90
9980;DHT22;5030;51.532;6.766;2023-04-15T13:01:24;11.90;99.90
9980;DHT22;5030;51.532;6.766;2023-04-15T13:03:49;12.10;99.90
9980;DHT22;5030;51.532;6.766;2023-04-15T13:06:15;12.30;97.50
9980;DHT22;5030;51.532;6.766;2023-04-15T13:08:42;12.40;99.30
9980;DHT22;5030;51.532;6.766;2023-04-15T13:11:07;12.40;99.50
9980;DHT22;5030;51.532;6.766;2023-04-15T13:13:33;12.40;96.90
9980;DHT22;5030;51.532;6.766;2023-04-15T13:15:59;12.50;97.30
9980;DHT22;5030;51.532;6.766;2023-04-15T13:18:25;12.70;93.70
9980;DHT22;5030;51.532;6.766;2023-04-15T13:20:50;12.40;94.00
9980;DHT22;5030;51.532;6.766;2023-04-15T13:23:16;12.10;95.90
9980;DHT22;5030;51.532;6.766;2023-04-15T13:25:42;12.00;99.90
9980;DHT22;5030;51.532;6.766;2023-04-15T13:28:11;11.80;99.90
9980;DHT22;5030;51.532;6.766;2023-04-15T13:30:37;11.70;99.90
9980;DHT22;5030;51.532;6.766;2023-04-15T13:33:03;11.30;99.90
9980;DHT22;5030;51.532;6.766;2023-04-15T13:35:31;11.00;99.90
9980;DHT22;5030;51.532;6.766;2023-04-15T13:37:56;11.00;99.90
9980;DHT22;5030;51.532;6.766;2023-04-15T13:40:22;11.20;99.90
9980;DHT22;5030;51.532;6.766;2023-04-15T13:42:48;11.30;99.90
9980;DHT22;5030;51.532;6.766;2023-04-15T13:45:13;11.30;99.90
9980;DHT22;5030;51.532;6.766;2023-04-15T13:47:39;11.30;99.90
9980;DHT22;5030;51.532;6.766;2023-04-15T13:50:05;11.20;99.90
9980;DHT22;5030;51.532;6.766;2023-04-15T13:52:31;11.20;99.90
9980;DHT22;5030;51.532;6.766;2023-04-15T13:54:57;11.40;99.90
9980;DHT22;5030;51.532;6.766;2023-04-15T13:57:23;11.10;99.90
9980;DHT22;5030;51.532;6.766;2023-04-15T13:59:51;11.30;99.90
9980;DHT22;5030;51.532;6.766;2023-04-15T14:02:17;11.20;99.90
9980;DHT22;5030;51.532;6.766;2023-04-15T14:04:42;11.00;99.90
9980;DHT22;5030;51.532;6.766;2023-04-15T14:07:09;11.20;99.90
9980;DHT22;5030;51.532;6.766;2023-04-15T14:09:35;11.30;99.90
9980;DHT22;5030;51.532;6.766;2023-04-15T14:12:00;11.50;99.90
9980;DHT22;5030;51.532;6.766;2023-04-15T14:14:26;11.60;99.90
9980;DHT22;5030;51.532;6.766;2023-04-15T14:16:53;11.70;99.90
9980;DHT22;5030;51.532;6.766;2023-04-15T14:19:19;11.70;99.90
9980;DHT22;5030;51.532;6.766;2023-04-15T14:21:45;11.80;99.90
9980;DHT22;5030;51.532;6.766;2023-04-15T14:24:10;11.80;99.90
9980;DHT22;5030;51.532;6.766;2023-04-15T14:26:36;11.60;99.90
9980;DHT22;5030;51.532;6.766;2023-04-15T14:29:02;11.50;99.90
9980;DHT22;5030;51.532;6.766;2023-04-15T14:31:27;11.50;99.90
9980;DHT22;5030;51.532;6.766;2023-04-15T14:33:53;11.40;99.90
9980;DHT22;5030;51.532;6.766;2023-04-15T14:36:18;11.10;99.90
9980;DHT22;5030;51.532;6.766;2023-04-15T14:38:44;10.90;99.90
9980;DHT22;5030;51.532;6.766;2023-04-15T14:41:10;10.90;99.90
9980;DHT22;5030;51.532;6.766;2023-04-15T14:43:36;11.00;99.90
9980;DHT22;5030;51.532;6.766;2023-04-15T14:46:02;10.90;99.90
9980;DHT22;5030;51.532;6.766;2023-04-15T14:48:28;10.80;99.90
9980;DHT22;5030;51.532;6.766;2023-04-15T14:50:55;10.90;99.90
9980;DHT22;5030;51.532;6.766;2023-04-15T14:53:20;11.00;99.90
9980;DHT22;5030;51.532;6.766;2023-04-15T14:55:46;11.00;99.90
9980;DHT22;5030;51.532;6.766;2023-04-15T14:58:12;11.20;99.90
9980;DHT22;5030;51.532;6.766;2023-04-15T15:00:38;11.20;99.90
9980;DHT22;5030;51.532;6.766;2023-04-15T15:03:10;11.30;99.90
9980;DHT22;5030;51.532;6.766;2023-04-15T15:05:40;11.30;99.90
9980;DHT22;5030;51.532;6.766;2023-04-15T15:08:06;11.20;99.90
9980;DHT22;5030;51.532;6.766;2023-04-15T15:10:32;11.30;99.90
9980;DHT22;5030;51.532;6.766;2023-04-15T15:12:58;11.30;99.90
9980;DHT22;5030;51.532;6.766;2023-04-15T15:15:24;11.20;99.90
9980;DHT22;5030;51.532;6.766;2023-04-15T15:17:50;11.10;99.90
9980;DHT22;5030;51.532;6.766;2023-04-15T15:20:16;11.00;99.90
9980;DHT22;5030;51.532;6.766;2023-04-15T15:22:42;10.90;99.90
9980;DHT22;5030;51.532;6.766;2023-04-15T15:25:07;10.70;99.90
9980;DHT22;5030;51.532;6.766;2023-04-15T15:27:33;10.80;99.90
9980;DHT22;5030;51.532;6.766;2023-04-15T15:29:59;10.80;99.90
9980;DHT22;5030;51.532;6.766;2023-04-15T15:32:24;10.70;99.90
9980;DHT22;5030;51.532;6.766;2023-04-15T15:34:50;10.50;99.90
9980;DHT22;5030;51.532;6.766;2023-04-15T15:37:16;10.50;99.90
9980;DHT22;5030;51.532;6.766;2023-04-15T15:39:42;10.50;99.90
9980;DHT22;5030;51.532;6.766;2023-04-15T15:42:07;10.50;99.90
9980;DHT22;5030;51.532;6.766;2023-04-15T15:44:33;10.30;99.90
9980;DHT22;5030;51.532;6.766;2023-04-15T15:47:00;10.30;99.90
9980;DHT22;5030;51.532;6.766;2023-04-15T15:49:27;10.30;99.90
9980;DHT22;5030;51.532;6.766;2023-04-15T15:51:52;10.10;99.90
9980;DHT22;5030;51.532;6.766;2023-04-15T15:54:18;10.10;99.90
9980;DHT22;5030;51.532;6.766;2023-04-15T15:56:43;10.10;99.90
9980;DHT22;5030;51.532;6.766;2023-04-15T15:59:09;9.90;99.90
9980;DHT22;5030;51.532;6.766;2023-04-15T16:01:35;9.90;99.90
9980;DHT22;5030;51.532;6.766;2023-04-15T16:04:00;9.80;99.90
9980;DHT22;5030;51.532;6.766;2023-04-15T16:06:26;9.80;99.90
9980;DHT22;5030;51.532;6.766;2023-04-15T16:08:52;9.60;99.90
9980;DHT22;5030;51.532;6.766;2023-04-15T16:11:17;9.70;99.90
9980;DHT22;5030;51.532;6.766;2023-04-15T16:13:43;9.60;99.90
9980;DHT22;5030;51.532;6.766;2023-04-15T16:16:08;9.60;99.90
9980;DHT22;5030;51.532;6.766;2023-04-15T16:18:34;9.60;99.90
9980;DHT22;5030;51.532;6.766;2023-04-15T16:21:00;9.50;99.90
9980;DHT22;5030;51.532;6.766;2023-04-15T16:23:26;9.50;99.90